createdAt,value
2023-04-20T00:07:02.318Z,69.18
2023-04-20T00:17:06.614Z,69.61
2023-04-20T00:27:09.314Z,68.50
2023-04-20T00:37:13.352Z,69.04
2023-04-20T00:47:16.050Z,68.79
2023-04-20T00:57:24.040Z,65.33
2023-04-20T01:07:26.855Z,67.01
2023-04-20T01:17:30.963Z,69.01
2023-04-20T01:27:35.000Z,70.22
2023-04-20T01:37:37.950Z,71.59
2023-04-20T01:47:41.999Z,74.15
2023-04-20T01:57:44.742Z,73.62
2023-04-20T02:07:48.760Z,71.51
2023-04-20T02:17:52.175Z,69.04
2023-04-20T02:27:56.985Z,68.60
2023-04-20T02:37:59.642Z,59.32
2023-04-20T02:48:03.761Z,56.01
2023-04-20T02:58:06.936Z,52.88
2023-04-20T03:08:10.932Z,53.91
2023-04-20T03:18:13.636Z,54.15
2023-04-20T03:28:17.696Z,56.59
2023-04-20T03:38:21.155Z,58.46
2023-04-20T03:48:25.167Z,58.23
2023-04-20T03:58:27.992Z,58.38
2023-04-20T04:08:32.497Z,58.29
2023-04-20T04:18:35.246Z,56.81
2023-04-20T04:28:39.321Z,58.64
2023-04-20T04:38:42.838Z,58.20
2023-04-20T04:48:46.913Z,58.98
2023-04-20T04:58:49.665Z,59.04
2023-04-20T05:08:53.637Z,59.19
2023-04-20T05:18:56.336Z,59.74
2023-04-20T05:29:00.291Z,61.36
2023-04-20T05:39:03.065Z,68.36
2023-04-20T05:49:07.191Z,78.03
2023-04-20T05:59:10.113Z,83.74
2023-04-20T06:09:14.260Z,86.26
2023-04-20T06:19:17.072Z,87.31
2023-04-20T06:29:21.267Z,87.99
2023-04-20T06:39:23.969Z,87.26
2023-04-20T06:49:27.967Z,88.43
2023-04-20T06:59:30.630Z,88.11
2023-04-20T07:09:34.624Z,88.18
2023-04-20T07:19:37.284Z,87.30
2023-04-20T07:29:41.425Z,86.67
2023-04-20T07:39:44.182Z,87.30
2023-04-20T07:49:48.200Z,86.24
2023-04-20T07:59:51.192Z,84.31
2023-04-20T08:09:55.168Z,84.84
2023-04-20T08:19:57.858Z,84.03
2023-04-20T08:30:04.167Z,82.99
2023-04-20T08:40:08.197Z,84.37
2023-04-20T08:50:12.364Z,84.08
2023-04-20T09:00:16.739Z,83.70
2023-04-20T09:10:20.763Z,84.14
2023-04-20T09:20:31.812Z,84.84
2023-04-20T09:30:43.680Z,84.99
2023-04-20T09:40:46.437Z,84.95
2023-04-20T09:50:51.770Z,85.02
2023-04-20T10:00:55.053Z,85.74
2023-04-20T10:10:59.179Z,85.40
2023-04-20T10:21:09.379Z,85.95
2023-04-20T10:31:15.445Z,87.97
2023-04-20T10:41:18.360Z,87.71
2023-04-20T10:51:22.726Z,87.55
2023-04-20T11:01:25.452Z,87.87
2023-04-20T11:11:29.627Z,88.25
2023-04-20T11:21:40.200Z,87.24
2023-04-20T11:31:51.563Z,79.51
2023-04-20T11:41:54.491Z,62.31
2023-04-20T11:51:58.568Z,72.45
2023-04-20T12:02:04.164Z,75.57
2023-04-20T12:12:09.910Z,73.03
2023-04-20T12:22:12.584Z,70.15
2023-04-20T12:32:16.599Z,71.37
2023-04-20T12:42:19.383Z,64.41
2023-04-20T12:52:23.431Z,54.20
2023-04-20T13:02:26.376Z,46.28
2023-04-20T13:12:30.522Z,40.81
2023-04-20T13:22:33.870Z,43.64
2023-04-20T13:32:39.149Z,38.83
2023-04-20T13:42:42.128Z,42.99
2023-04-20T13:52:46.401Z,48.84
2023-04-20T14:02:49.152Z,50.59
2023-04-20T14:12:53.247Z,51.21
2023-04-20T14:22:55.881Z,47.50
2023-04-20T14:33:01.214Z,53.97
2023-04-20T14:43:04.080Z,57.15
2023-04-20T14:53:08.088Z,59.04
2023-04-20T15:03:11.078Z,56.64
2023-04-20T15:13:15.527Z,58.63
2023-04-20T15:23:18.197Z,56.61
2023-04-20T15:33:22.222Z,58.39
2023-04-20T15:43:24.981Z,58.78
2023-04-20T15:53:28.987Z,61.11
2023-04-20T16:03:31.742Z,64.46
2023-04-20T16:13:36.749Z,68.55
2023-04-20T16:23:39.599Z,70.01
2023-04-20T16:33:43.669Z,72.96
2023-04-20T16:43:46.399Z,76.05
2023-04-20T16:53:50.722Z,78.51
2023-04-20T17:03:53.546Z,80.80
2023-04-20T17:13:57.689Z,82.52
2023-04-20T17:24:00.361Z,83.20
2023-04-20T17:34:04.453Z,86.28
2023-04-20T17:44:07.184Z,86.41
2023-04-20T17:54:11.374Z,85.98
2023-04-20T18:04:14.251Z,86.41
2023-04-20T18:14:18.544Z,86.04
2023-04-20T18:24:21.694Z,86.03
2023-04-20T18:34:29.695Z,86.02
2023-04-20T18:44:32.459Z,85.90
2023-04-20T18:54:38.369Z,86.03
2023-04-20T19:04:41.206Z,86.05
2023-04-20T19:14:47.037Z,86.04
2023-04-20T19:24:52.350Z,85.98
2023-04-20T19:34:59.084Z,86.14
2023-04-20T19:45:01.758Z,85.88
2023-04-20T19:55:07.382Z,85.65
2023-04-20T20:05:10.498Z,87.27
2023-04-20T20:15:14.901Z,87.48
2023-04-20T20:25:19.800Z,87.00
2023-04-20T20:35:23.954Z,87.73
2023-04-20T20:45:27.745Z,88.83
2023-04-20T20:55:31.930Z,89.18
2023-04-20T21:05:35.826Z,90.43
2023-04-20T21:15:40.564Z,90.93
2023-04-20T21:25:43.331Z,91.23
2023-04-20T21:35:47.447Z,91.53
2023-04-20T21:45:51.025Z,90.79
2023-04-20T21:55:55.082Z,91.34
2023-04-20T22:05:57.877Z,92.13
2023-04-20T22:16:01.977Z,92.59
2023-04-20T22:26:05.031Z,93.24
2023-04-20T22:36:10.537Z,93.13
2023-04-20T22:46:13.295Z,92.69
2023-04-20T22:56:17.354Z,91.84
2023-04-20T23:06:21.862Z,91.63
2023-04-20T23:16:28.163Z,91.36
2023-04-20T23:26:30.903Z,90.78
2023-04-20T23:36:34.984Z,90.92
2023-04-20T23:46:37.728Z,90.61
2023-04-20T23:56:41.739Z,90.82
